Time;durP1;ratioP1;P1;durP2;ratioP2;P2;SDS_P1;SDS_P2;PMS_P1;PMS_P2;Temp;Humidity;BMP_temperature;BMP_pressure;BME280_temperature;BME280_humidity;BME280_pressure;Samples;Min_cycle;Max_cycle;Signal;HPM_P1;HPM_P2
2022/07/22 00:00:59;;;;;;;;;;;20.90;99.90;;;;;;5065326;28;19923;-71
2022/07/22 00:03:24;;;;;;;;;;;20.90;99.90;;;;;;5066659;28;19916;-71
2022/07/22 00:05:49;;;;;;;;;;;20.90;99.90;;;;;;5064963;28;20426;-71
2022/07/22 00:08:15;;;;;;;;;;;21.00;99.90;;;;;;5066806;28;20292;-71
2022/07/22 00:10:41;;;;;;;;;;;20.90;99.90;;;;;;5064747;28;19912;-71
2022/07/22 00:13:06;;;;;;;;;;;21.00;99.90;;;;;;5064584;28;19923;-72
2022/07/22 00:15:32;;;;;;;;;;;21.00;99.90;;;;;;5064209;28;19916;-72
2022/07/22 00:18:00;;;;;;;;;;;21.00;99.90;;;;;;5066611;28;19972;-71
2022/07/22 00:20:25;;;;;;;;;;;21.10;99.90;;;;;;5064233;28;19995;-71
2022/07/22 00:22:51;;;;;;;;;;;21.10;99.90;;;;;;5066093;28;19999;-71
2022/07/22 00:25:16;;;;;;;;;;;21.10;99.90;;;;;;5064500;28;20428;-73
2022/07/22 00:27:42;;;;;;;;;;;21.10;99.90;;;;;;5066549;28;20006;-70
2022/07/22 00:30:08;;;;;;;;;;;21.10;99.90;;;;;;5064406;28;19921;-70
2022/07/22 00:32:33;;;;;;;;;;;21.10;99.90;;;;;;5055725;28;19920;-72
2022/07/22 00:34:59;;;;;;;;;;;21.10;99.90;;;;;;5057065;28;19927;-70
2022/07/22 00:37:25;;;;;;;;;;;21.10;99.90;;;;;;5056620;28;19990;-69
2022/07/22 00:39:50;;;;;;;;;;;21.10;99.90;;;;;;5063105;28;19920;-69
2022/07/22 00:42:15;;;;;;;;;;;21.10;99.90;;;;;;5065314;28;19908;-69
2022/07/22 00:44:41;;;;;;;;;;;21.00;99.90;;;;;;5063584;28;19916;-69
2022/07/22 00:47:06;;;;;;;;;;;21.00;99.90;;;;;;5062587;28;19909;-69
2022/07/22 00:49:32;;;;;;;;;;;21.00;99.90;;;;;;5063150;28;19952;-70
2022/07/22 00:51:57;;;;;;;;;;;21.00;99.90;;;;;;5066735;28;19915;-70
2022/07/22 00:54:23;;;;;;;;;;;21.00;99.90;;;;;;5066055;28;19917;-70
2022/07/22 00:56:48;;;;;;;;;;;20.90;99.90;;;;;;5062473;28;19931;-71
2022/07/22 00:59:14;;;;;;;;;;;20.90;99.90;;;;;;5065883;28;19925;-69
2022/07/22 01:01:40;;;;;;;;;;;20.80;99.90;;;;;;5054514;28;20003;-70
2022/07/22 01:04:06;;;;;;;;;;;20.80;99.90;;;;;;5065183;28;20382;-71
2022/07/22 01:06:32;;;;;;;;;;;20.80;99.90;;;;;;5063932;28;20313;-70
2022/07/22 01:08:57;;;;;;;;;;;20.80;99.90;;;;;;5065725;28;19916;-71
2022/07/22 01:11:23;;;;;;;;;;;20.80;99.90;;;;;;5063855;28;19920;-71
2022/07/22 01:13:48;;;;;;;;;;;20.70;99.90;;;;;;5065827;28;20030;-71
2022/07/22 01:16:15;;;;;;;;;;;20.80;99.90;;;;;;5063493;28;20191;-71
2022/07/22 01:18:43;;;;;;;;;;;20.70;99.90;;;;;;5065529;28;19916;-71
2022/07/22 01:21:09;;;;;;;;;;;20.70;99.90;;;;;;5060097;28;19979;-71
2022/07/22 01:23:35;;;;;;;;;;;20.70;99.90;;;;;;5065099;28;19994;-71
2022/07/22 01:26:01;;;;;;;;;;;20.70;99.90;;;;;;5063744;28;19927;-71
2022/07/22 01:28:26;;;;;;;;;;;20.60;99.90;;;;;;5065585;28;19924;-70
2022/07/22 01:30:52;;;;;;;;;;;20.50;99.90;;;;;;5052602;28;19913;-71
2022/07/22 01:33:19;;;;;;;;;;;20.60;99.90;;;;;;5065299;28;20179;-71
2022/07/22 01:35:45;;;;;;;;;;;20.50;99.90;;;;;;5063428;28;19928;-71
2022/07/22 01:38:11;;;;;;;;;;;20.40;99.90;;;;;;5065020;28;19931;-71
2022/07/22 01:40:37;;;;;;;;;;;20.40;99.90;;;;;;5054918;28;19916;-71
2022/07/22 01:43:02;;;;;;;;;;;20.40;99.90;;;;;;5064325;28;19924;-71
2022/07/22 01:45:28;;;;;;;;;;;20.40;99.90;;;;;;5063482;28;20047;-71
2022/07/22 01:47:53;;;;;;;;;;;20.30;99.90;;;;;;5062892;28;19919;-71
2022/07/22 01:50:19;;;;;;;;;;;20.30;99.90;;;;;;5062716;28;19912;-71
2022/07/22 01:52:44;;;;;;;;;;;20.40;99.90;;;;;;5064489;28;19913;-71
2022/07/22 01:55:12;;;;;;;;;;;20.30;99.90;;;;;;5058419;28;20621;-71
2022/07/22 01:57:37;;;;;;;;;;;20.30;99.90;;;;;;5060803;28;20022;-70
2022/07/22 02:00:06;;;;;;;;;;;20.30;99.90;;;;;;5063400;28;20070;-71
2022/07/22 02:02:32;;;;;;;;;;;20.30;99.90;;;;;;5056519;28;19913;-71
2022/07/22 02:04:58;;;;;;;;;;;20.20;99.90;;;;;;5062570;28;20351;-70
2022/07/22 02:07:25;;;;;;;;;;;20.20;99.90;;;;;;5059294;28;19912;-72
2022/07/22 02:09:51;;;;;;;;;;;20.20;99.90;;;;;;5062655;28;19916;-71
2022/07/22 02:12:17;;;;;;;;;;;20.10;99.90;;;;;;5065216;28;19958;-70
2022/07/22 02:14:42;;;;;;;;;;;20.00;99.90;;;;;;5064777;28;20294;-71
2022/07/22 02:17:13;;;;;;;;;;;20.10;99.90;;;;;;5053394;28;20431;-72
2022/07/22 02:19:39;;;;;;;;;;;20.00;99.90;;;;;;5064100;28;19917;-72
2022/07/22 02:22:05;;;;;;;;;;;20.00;99.90;;;;;;5063264;28;19966;-72
2022/07/22 02:24:30;;;;;;;;;;;20.00;99.90;;;;;;5064646;28;19920;-71
2022/07/22 02:26:56;;;;;;;;;;;19.90;99.90;;;;;;5060681;28;19923;-72
2022/07/22 02:29:21;;;;;;;;;;;19.90;99.90;;;;;;5062556;28;19916;-72
2022/07/22 02:31:47;;;;;;;;;;;19.90;99.90;;;;;;5064317;28;19956;-72
2022/07/22 02:34:12;;;;;;;;;;;19.80;99.90;;;;;;5060377;28;19927;-71
2022/07/22 02:36:38;;;;;;;;;;;19.80;99.90;;;;;;5059530;28;20607;-71
2022/07/22 02:39:03;;;;;;;;;;;19.90;99.90;;;;;;5063306;28;19917;-71
2022/07/22 02:41:29;;;;;;;;;;;19.80;99.90;;;;;;5051697;28;19924;-71
2022/07/22 02:43:54;;;;;;;;;;;19.80;99.90;;;;;;5064463;28;20251;-69
2022/07/22 02:46:23;;;;;;;;;;;19.80;99.90;;;;;;5062806;28;20338;-70
2022/07/22 02:48:49;;;;;;;;;;;19.80;99.90;;;;;;5063895;28;19923;-72
2022/07/22 02:51:14;;;;;;;;;;;19.80;99.90;;;;;;5062770;28;19913;-70
2022/07/22 02:53:40;;;;;;;;;;;19.80;99.90;;;;;;5064382;28;19913;-70
2022/07/22 02:56:05;;;;;;;;;;;19.70;99.90;;;;;;5054114;28;19913;-70
2022/07/22 02:58:31;;;;;;;;;;;19.70;99.90;;;;;;5064589;28;19916;-71
2022/07/22 03:00:57;;;;;;;;;;;19.60;99.90;;;;;;5053814;28;20361;-70
2022/07/22 03:03:23;;;;;;;;;;;19.60;99.90;;;;;;5063776;28;20286;-69
2022/07/22 03:05:49;;;;;;;;;;;19.60;99.90;;;;;;5065712;28;19916;-67
2022/07/22 03:08:15;;;;;;;;;;;19.60;99.90;;;;;;5068072;28;19974;-68
2022/07/22 03:10:40;;;;;;;;;;;19.50;99.90;;;;;;5065804;28;19916;-69
2022/07/22 03:13:05;;;;;;;;;;;19.50;99.90;;;;;;5060524;28;19909;-69
2022/07/22 03:15:31;;;;;;;;;;;19.40;99.90;;;;;;5064999;28;20011;-70
2022/07/22 03:17:56;;;;;;;;;;;19.40;99.90;;;;;;5065664;28;20628;-68
2022/07/22 03:20:22;;;;;;;;;;;19.40;99.90;;;;;;5065176;28;19920;-68
2022/07/22 03:22:47;;;;;;;;;;;19.30;99.90;;;;;;5068138;28;19919;-68
2022/07/22 03:25:13;;;;;;;;;;;19.30;99.90;;;;;;5065877;28;19916;-70
2022/07/22 03:27:38;;;;;;;;;;;19.40;99.90;;;;;;5067857;28;19993;-69
2022/07/22 03:30:05;;;;;;;;;;;19.40;99.90;;;;;;5065916;28;19936;-70
2022/07/22 03:32:30;;;;;;;;;;;19.40;99.90;;;;;;5061039;28;20007;-70
2022/07/22 03:34:55;;;;;;;;;;;19.30;99.90;;;;;;5067009;28;19999;-68
2022/07/22 03:37:21;;;;;;;;;;;19.30;99.90;;;;;;5055765;28;19917;-70
2022/07/22 03:39:46;;;;;;;;;;;19.40;99.90;;;;;;5066872;28;19920;-69
2022/07/22 03:42:12;;;;;;;;;;;19.30;99.90;;;;;;5065887;28;20371;-69
2022/07/22 03:44:37;;;;;;;;;;;19.30;99.90;;;;;;5067453;28;19917;-69
2022/07/22 03:47:03;;;;;;;;;;;19.40;99.90;;;;;;5065731;28;19917;-69
2022/07/22 03:49:29;;;;;;;;;;;19.40;99.90;;;;;;5067553;28;19917;-69
2022/07/22 03:51:55;;;;;;;;;;;19.40;99.90;;;;;;5065696;28;20011;-68
2022/07/22 03:54:20;;;;;;;;;;;19.50;99.90;;;;;;5067391;28;20031;-69
2022/07/22 03:56:46;;;;;;;;;;;19.50;99.90;;;;;;5065018;28;20027;-68
2022/07/22 03:59:11;;;;;;;;;;;19.50;99.90;;;;;;5067517;28;20416;-69
2022/07/22 04:01:37;;;;;;;;;;;19.60;99.90;;;;;;5065448;28;19912;-69
2022/07/22 04:04:02;;;;;;;;;;;19.60;99.90;;;;;;5066998;28;19977;-68
2022/07/22 04:06:28;;;;;;;;;;;19.70;99.90;;;;;;5059233;28;19917;-69
2022/07/22 04:08:54;;;;;;;;;;;19.70;99.90;;;;;;5066245;28;19999;-69
2022/07/22 04:11:20;;;;;;;;;;;19.60;99.90;;;;;;5064972;28;19916;-69
2022/07/22 04:13:45;;;;;;;;;;;19.60;99.90;;;;;;5066900;28;20267;-70
2022/07/22 04:16:11;;;;;;;;;;;19.60;99.90;;;;;;5064492;28;19913;-69
2022/07/22 04:18:36;;;;;;;;;;;19.60;99.90;;;;;;5066815;28;19924;-69
2022/07/22 04:21:02;;;;;;;;;;;19.60;99.90;;;;;;5064804;28;19946;-69
2022/07/22 04:23:27;;;;;;;;;;;19.50;99.90;;;;;;5050061;28;19909;-69
2022/07/22 04:25:53;;;;;;;;;;;19.60;99.90;;;;;;5064640;28;19963;-69
2022/07/22 04:28:18;;;;;;;;;;;19.60;99.90;;;;;;5066878;28;20082;-69
2022/07/22 04:30:44;;;;;;;;;;;19.60;99.90;;;;;;5064415;28;19978;-69
2022/07/22 04:33:09;;;;;;;;;;;19.60;99.90;;;;;;5066958;28;20203;-69
2022/07/22 04:35:35;;;;;;;;;;;19.50;99.90;;;;;;5064371;28;20259;-69
2022/07/22 04:38:00;;;;;;;;;;;19.50;99.90;;;;;;5066359;28;20347;-69
2022/07/22 04:40:26;;;;;;;;;;;19.50;99.90;;;;;;5064599;28;20656;-69
2022/07/22 04:42:51;;;;;;;;;;;19.50;99.90;;;;;;5066174;28;20372;-69
2022/07/22 04:45:16;;;;;;;;;;;19.50;99.90;;;;;;5064400;28;19912;-69
2022/07/22 04:47:42;;;;;;;;;;;19.50;99.90;;;;;;5065854;28;19919;-69
2022/07/22 04:50:07;;;;;;;;;;;19.50;99.90;;;;;;5066062;28;20042;-70
2022/07/22 04:52:33;;;;;;;;;;;19.60;99.90;;;;;;5064088;28;19923;-70
2022/07/22 04:54:58;;;;;;;;;;;19.60;99.90;;;;;;5065724;28;19931;-70
2022/07/22 04:57:24;;;;;;;;;;;19.50;99.90;;;;;;5064022;28;19936;-70
2022/07/22 04:59:50;;;;;;;;;;;19.60;99.90;;;;;;5065958;28;20227;-69
2022/07/22 05:02:15;;;;;;;;;;;19.70;99.90;;;;;;5063892;28;19991;-70
2022/07/22 05:04:41;;;;;;;;;;;19.70;99.90;;;;;;5066109;28;19916;-69
2022/07/22 05:07:06;;;;;;;;;;;19.80;99.90;;;;;;5060175;28;20341;-70
2022/07/22 05:09:31;;;;;;;;;;;19.70;99.90;;;;;;5065346;28;19916;-71
2022/07/22 05:11:57;;;;;;;;;;;19.70;99.90;;;;;;5064111;28;20434;-71
2022/07/22 05:14:22;;;;;;;;;;;19.60;99.90;;;;;;5065818;28;20457;-71
2022/07/22 05:16:48;;;;;;;;;;;19.70;99.90;;;;;;5063523;28;19928;-71
2022/07/22 05:19:13;;;;;;;;;;;19.80;99.90;;;;;;5065442;28;19982;-72
2022/07/22 05:21:39;;;;;;;;;;;19.80;99.90;;;;;;5063574;28;19958;-71
2022/07/22 05:24:04;;;;;;;;;;;19.80;99.90;;;;;;5065675;28;19917;-70
2022/07/22 05:26:32;;;;;;;;;;;19.80;99.90;;;;;;5061792;28;20017;-70
2022/07/22 05:28:57;;;;;;;;;;;19.80;99.90;;;;;;5065223;28;19923;-70
2022/07/22 05:31:23;;;;;;;;;;;19.90;99.90;;;;;;5063424;28;20268;-70
2022/07/22 05:33:48;;;;;;;;;;;20.00;99.90;;;;;;5065229;28;19912;-70
2022/07/22 05:36:14;;;;;;;;;;;20.10;99.90;;;;;;5063535;28;19996;-70
2022/07/22 05:38:39;;;;;;;;;;;20.10;99.90;;;;;;5061478;28;20015;-70
2022/07/22 05:41:05;;;;;;;;;;;20.10;99.90;;;;;;5062815;28;19913;-70
2022/07/22 05:43:30;;;;;;;;;;;20.10;99.90;;;;;;5050402;28;19919;-70
2022/07/22 05:45:55;;;;;;;;;;;20.10;99.90;;;;;;5062564;28;19971;-71
2022/07/22 05:48:21;;;;;;;;;;;20.20;99.90;;;;;;5059813;28;19919;-70
2022/07/22 05:50:46;;;;;;;;;;;20.30;99.90;;;;;;5063114;28;20456;-70
2022/07/22 05:53:12;;;;;;;;;;;20.40;99.90;;;;;;5063754;28;19999;-70
2022/07/22 05:55:37;;;;;;;;;;;20.50;99.90;;;;;;5063287;28;19917;-70
2022/07/22 05:58:03;;;;;;;;;;;20.70;99.90;;;;;;5053614;28;19932;-70
2022/07/22 06:00:28;;;;;;;;;;;20.90;99.90;;;;;;5064381;28;19912;-70
2022/07/22 06:02:53;;;;;;;;;;;21.00;99.90;;;;;;5062984;28;20008;-70
2022/07/22 06:05:19;;;;;;;;;;;21.00;99.90;;;;;;5065079;28;19935;-69
2022/07/22 06:07:45;;;;;;;;;;;21.10;99.90;;;;;;5058271;28;20336;-70
2022/07/22 06:10:10;;;;;;;;;;;21.20;99.90;;;;;;5064577;28;19916;-70
2022/07/22 06:12:36;;;;;;;;;;;21.10;99.90;;;;;;5054144;28;19913;-69
2022/07/22 06:15:01;;;;;;;;;;;21.30;99.90;;;;;;5065027;28;20366;-68
2022/07/22 06:17:27;;;;;;;;;;;21.50;99.90;;;;;;5063011;28;20355;-68
2022/07/22 06:19:52;;;;;;;;;;;21.30;99.90;;;;;;5065178;28;19916;-67
2022/07/22 06:22:18;;;;;;;;;;;21.20;99.90;;;;;;5063167;28;19965;-69
2022/07/22 06:24:44;;;;;;;;;;;21.30;99.90;;;;;;5064906;28;19923;-69
2022/07/22 06:27:09;;;;;;;;;;;21.30;99.90;;;;;;5059254;28;19963;-70
2022/07/22 06:29:35;;;;;;;;;;;21.40;99.90;;;;;;5064308;28;20315;-71
2022/07/22 06:32:00;;;;;;;;;;;21.30;99.90;;;;;;5063007;28;20029;-70
2022/07/22 06:34:25;;;;;;;;;;;21.30;99.90;;;;;;5064806;28;19927;-70
2022/07/22 06:36:51;;;;;;;;;;;21.40;99.90;;;;;;5062641;28;19928;-70
2022/07/22 06:39:16;;;;;;;;;;;21.30;99.90;;;;;;5066105;28;19913;-69
2022/07/22 06:41:42;;;;;;;;;;;21.60;99.90;;;;;;5058595;28;19917;-71
2022/07/22 06:44:07;;;;;;;;;;;21.60;99.90;;;;;;5069248;28;19924;-71
2022/07/22 06:46:33;;;;;;;;;;;21.60;99.90;;;;;;5065188;28;19959;-71
2022/07/22 06:48:58;;;;;;;;;;;21.60;99.90;;;;;;5067501;28;19917;-74
2022/07/22 06:51:24;;;;;;;;;;;21.80;99.90;;;;;;5066874;28;19927;-73
2022/07/22 06:53:49;;;;;;;;;;;21.80;99.90;;;;;;5068842;28;19912;-74
2022/07/22 06:56:14;;;;;;;;;;;21.90;99.90;;;;;;5065916;28;19927;-74
2022/07/22 06:58:40;;;;;;;;;;;21.90;99.90;;;;;;5068248;28;19970;-71
2022/07/22 07:01:05;;;;;;;;;;;21.90;99.90;;;;;;5064272;28;20484;-71
2022/07/22 07:03:31;;;;;;;;;;;21.80;99.90;;;;;;5065200;28;19963;-71
2022/07/22 07:05:56;;;;;;;;;;;21.90;99.90;;;;;;5063190;28;19913;-71
2022/07/22 07:08:22;;;;;;;;;;;21.90;99.90;;;;;;5065003;28;19912;-70
2022/07/22 07:10:48;;;;;;;;;;;22.00;99.90;;;;;;5062859;28;19917;-69
2022/07/22 07:13:13;;;;;;;;;;;22.00;99.90;;;;;;5065216;28;19965;-69
2022/07/22 07:15:39;;;;;;;;;;;22.10;99.90;;;;;;5064352;28;19917;-70
2022/07/22 07:18:04;;;;;;;;;;;21.90;99.90;;;;;;5060643;28;19924;-68
2022/07/22 07:20:29;;;;;;;;;;;22.00;99.90;;;;;;5067284;28;20236;-68
2022/07/22 07:22:55;;;;;;;;;;;22.20;99.90;;;;;;5060820;28;20379;-70
2022/07/22 07:25:20;;;;;;;;;;;22.30;99.90;;;;;;5067775;28;20271;-72
2022/07/22 07:27:46;;;;;;;;;;;22.20;99.90;;;;;;5066100;28;19955;-71
2022/07/22 07:30:12;;;;;;;;;;;22.30;99.90;;;;;;5067897;28;19916;-71
2022/07/22 07:32:37;;;;;;;;;;;22.30;99.90;;;;;;5063868;28;20363;-68
2022/07/22 07:35:04;;;;;;;;;;;22.40;99.90;;;;;;5067504;28;20367;-69
2022/07/22 07:37:29;;;;;;;;;;;22.80;99.90;;;;;;5065714;28;20469;-70
2022/07/22 07:39:55;;;;;;;;;;;23.10;99.90;;;;;;5063991;28;19974;-68
2022/07/22 07:42:20;;;;;;;;;;;23.40;99.90;;;;;;5060064;28;19999;-70
2022/07/22 07:44:45;;;;;;;;;;;23.50;99.90;;;;;;5064248;28;20330;-69
2022/07/22 07:47:13;;;;;;;;;;;23.30;99.90;;;;;;5062179;28;19913;-71
2022/07/22 07:49:38;;;;;;;;;;;23.10;99.90;;;;;;5066973;28;19912;-68
2022/07/22 07:52:03;;;;;;;;;;;23.10;99.90;;;;;;5061842;28;20280;-69
2022/07/22 07:54:29;;;;;;;;;;;23.50;99.90;;;;;;5067644;28;19917;-75
2022/07/22 07:56:54;;;;;;;;;;;23.80;99.90;;;;;;5057963;28;19929;-72
2022/07/22 07:59:20;;;;;;;;;;;23.80;99.90;;;;;;5067309;28;20078;-68
2022/07/22 08:01:45;;;;;;;;;;;23.60;99.90;;;;;;5064729;28;19985;-68
2022/07/22 08:04:11;;;;;;;;;;;23.50;99.90;;;;;;5066905;28;19912;-68
2022/07/22 08:06:36;;;;;;;;;;;23.40;99.90;;;;;;5064779;28;20325;-68
2022/07/22 08:09:02;;;;;;;;;;;23.60;99.90;;;;;;5066828;28;19919;-68
2022/07/22 08:11:27;;;;;;;;;;;23.80;99.90;;;;;;5065037;28;20003;-68
2022/07/22 08:13:53;;;;;;;;;;;23.70;99.90;;;;;;5066254;28;19913;-67
2022/07/22 08:16:25;;;;;;;;;;;23.70;99.90;;;;;;5043416;28;19921;-69
2022/07/22 08:18:50;;;;;;;;;;;23.70;99.90;;;;;;5066374;28;20373;-66
2022/07/22 08:21:15;;;;;;;;;;;23.90;99.90;;;;;;5064662;28;19917;-67
2022/07/22 08:23:41;;;;;;;;;;;24.40;99.90;;;;;;5058971;28;19912;-69
2022/07/22 08:26:06;;;;;;;;;;;24.70;99.90;;;;;;5064038;28;19917;-69
2022/07/22 08:28:32;;;;;;;;;;;24.60;99.90;;;;;;5067451;28;19912;-69
2022/07/22 08:30:57;;;;;;;;;;;24.40;99.90;;;;;;5066403;28;20022;-70
2022/07/22 08:33:22;;;;;;;;;;;24.10;99.90;;;;;;5063796;28;20279;-71
2022/07/22 08:35:48;;;;;;;;;;;23.60;99.90;;;;;;5065671;28;20596;-72
2022/07/22 08:38:13;;;;;;;;;;;23.30;99.90;;;;;;5064416;28;20489;-70
2022/07/22 08:40:39;;;;;;;;;;;23.00;99.90;;;;;;5065309;28;19913;-70
2022/07/22 08:43:04;;;;;;;;;;;22.90;99.90;;;;;;5062583;28;20569;-71
2022/07/22 08:45:30;;;;;;;;;;;22.80;99.90;;;;;;5065080;28;19916;-71
2022/07/22 08:47:56;;;;;;;;;;;22.70;99.90;;;;;;5063780;28;20405;-71
2022/07/22 08:50:22;;;;;;;;;;;22.70;99.90;;;;;;5065752;28;19923;-71
2022/07/22 08:52:48;;;;;;;;;;;22.80;99.90;;;;;;5056131;28;20213;-71
2022/07/22 08:55:13;;;;;;;;;;;23.10;99.90;;;;;;5064563;28;19913;-71
2022/07/22 08:57:43;;;;;;;;;;;23.30;99.90;;;;;;5063670;28;20041;-70
2022/07/22 09:00:12;;;;;;;;;;;23.80;99.90;;;;;;5066500;28;19913;-69
2022/07/22 09:02:38;;;;;;;;;;;23.80;99.90;;;;;;5063941;28;20050;-71
2022/07/22 09:05:05;;;;;;;;;;;23.60;99.90;;;;;;5066491;28;19917;-71
2022/07/22 09:07:32;;;;;;;;;;;23.80;99.90;;;;;;5065237;28;19913;-71
2022/07/22 09:09:59;;;;;;;;;;;23.60;99.90;;;;;;5066561;28;19917;-72
2022/07/22 09:12:27;;;;;;;;;;;23.40;99.90;;;;;;5064918;28;20448;-71
2022/07/22 09:14:53;;;;;;;;;;;23.20;99.90;;;;;;5066359;28;19961;-72
2022/07/22 09:17:23;;;;;;;;;;;23.00;99.90;;;;;;5064022;28;19920;-71
2022/07/22 09:19:48;;;;;;;;;;;22.90;99.90;;;;;;5066721;28;19922;-72
2022/07/22 09:22:14;;;;;;;;;;;22.60;99.90;;;;;;5064385;28;20002;-72
2022/07/22 09:24:39;;;;;;;;;;;22.90;99.90;;;;;;5066515;28;20642;-72
2022/07/22 09:27:06;;;;;;;;;;;23.10;99.90;;;;;;5064437;28;19923;-71
2022/07/22 09:29:32;;;;;;;;;;;23.60;99.90;;;;;;5053744;28;20355;-72
2022/07/22 09:31:57;;;;;;;;;;;23.90;99.90;;;;;;5063682;28;19923;-70
2022/07/22 09:34:41;;;;;;;;;;;23.90;99.90;;;;;;5066689;28;19920;-70
2022/07/22 09:37:07;;;;;;;;;;;23.90;99.90;;;;;;5056123;28;19926;-70
2022/07/22 09:39:32;;;;;;;;;;;24.20;99.90;;;;;;5060888;28;19912;-72
2022/07/22 09:41:59;;;;;;;;;;;24.30;99.90;;;;;;5063931;28;20405;-72
2022/07/22 09:44:24;;;;;;;;;;;24.50;99.90;;;;;;5056792;28;19956;-72
2022/07/22 09:46:50;;;;;;;;;;;25.00;99.90;;;;;;5063466;28;19995;-72
2022/07/22 09:49:34;;;;;;;;;;;25.10;99.90;;;;;;5066565;28;19916;-72
2022/07/22 09:52:00;;;;;;;;;;;25.00;99.90;;;;;;5064354;28;20351;-72
2022/07/22 09:54:26;;;;;;;;;;;24.70;99.90;;;;;;5061681;28;19991;-71
2022/07/22 09:56:51;;;;;;;;;;;24.60;99.90;;;;;;5059774;28;20445;-70
2022/07/22 09:59:17;;;;;;;;;;;24.70;99.90;;;;;;5056927;28;19908;-70
2022/07/22 10:01:42;;;;;;;;;;;24.60;99.90;;;;;;5063477;28;20391;-70
2022/07/22 10:04:09;;;;;;;;;;;24.40;99.90;;;;;;5058247;28;19912;-70
2022/07/22 10:06:37;;;;;;;;;;;24.30;99.90;;;;;;5063955;28;19920;-71
2022/07/22 10:09:03;;;;;;;;;;;24.20;99.90;;;;;;5054991;28;19916;-70
2022/07/22 10:11:28;;;;;;;;;;;24.50;99.90;;;;;;5062314;28;20717;-71
2022/07/22 10:13:54;;;;;;;;;;;24.70;99.90;;;;;;5058043;28;20369;-70
2022/07/22 10:16:19;;;;;;;;;;;24.90;99.90;;;;;;5069082;28;20119;-71
2022/07/22 10:18:46;;;;;;;;;;;24.80;99.90;;;;;;5069284;28;19916;-69
2022/07/22 10:21:11;;;;;;;;;;;24.60;99.90;;;;;;5073880;28;20385;-70
2022/07/22 10:23:57;;;;;;;;;;;24.30;99.90;;;;;;5067751;28;19976;-68
2022/07/22 10:26:42;;;;;;;;;;;24.00;99.90;;;;;;5066645;28;19920;-69
2022/07/22 10:29:23;;;;;;;;;;;24.30;99.90;;;;;;5064806;28;19913;-69
2022/07/22 10:31:49;;;;;;;;;;;24.30;99.90;;;;;;5070907;28;20360;-71
2022/07/22 10:34:14;;;;;;;;;;;24.60;99.90;;;;;;5072726;28;19917;-69
2022/07/22 10:36:43;;;;;;;;;;;25.30;99.90;;;;;;5066070;28;19924;-71
2022/07/22 10:39:10;;;;;;;;;;;25.70;99.90;;;;;;5071388;28;20002;-70
2022/07/22 10:41:43;;;;;;;;;;;25.70;99.90;;;;;;5076953;28;19928;-70
2022/07/22 10:44:09;;;;;;;;;;;25.60;99.90;;;;;;5064736;28;19913;-70
2022/07/22 10:46:53;;;;;;;;;;;25.90;99.90;;;;;;5070835;28;19975;-70
2022/07/22 10:49:22;;;;;;;;;;;25.20;99.90;;;;;;5066595;28;20287;-70
2022/07/22 10:52:06;;;;;;;;;;;24.60;99.90;;;;;;5071691;28;19935;-71
2022/07/22 10:54:32;;;;;;;;;;;24.60;99.90;;;;;;5073064;28;20378;-70
2022/07/22 10:56:59;;;;;;;;;;;25.10;99.90;;;;;;5069454;28;19986;-69
2022/07/22 10:59:24;;;;;;;;;;;25.50;99.90;;;;;;5064235;28;19952;-71
2022/07/22 11:01:54;;;;;;;;;;;25.50;99.90;;;;;;5074417;28;19978;-70
2022/07/22 11:04:23;;;;;;;;;;;25.70;99.90;;;;;;5063622;28;20430;-70
2022/07/22 11:06:50;;;;;;;;;;;25.00;99.90;;;;;;5071938;28;19912;-70
2022/07/22 11:09:16;;;;;;;;;;;25.10;99.90;;;;;;5061459;28;20009;-70
2022/07/22 11:11:43;;;;;;;;;;;24.60;99.90;;;;;;5070584;28;19913;-70
2022/07/22 11:14:19;;;;;;;;;;;24.00;99.90;;;;;;5059088;28;20322;-70
2022/07/22 11:16:46;;;;;;;;;;;24.40;99.90;;;;;;5066450;28;19923;-70
2022/07/22 11:19:12;;;;;;;;;;;24.90;99.90;;;;;;5068665;28;20252;-71
2022/07/22 11:21:37;;;;;;;;;;;25.80;99.90;;;;;;5067398;28;19935;-71
2022/07/22 11:24:04;;;;;;;;;;;26.00;99.90;;;;;;5057364;28;20007;-70
2022/07/22 11:26:40;;;;;;;;;;;26.30;99.90;;;;;;5068442;28;19923;-70
2022/07/22 11:29:07;;;;;;;;;;;27.20;99.90;;;;;;5061301;28;19924;-69
2022/07/22 11:31:32;;;;;;;;;;;27.50;99.10;;;;;;5069682;28;19936;-71
2022/07/22 11:34:08;;;;;;;;;;;27.90;98.50;;;;;;5061010;28;20265;-71
2022/07/22 11:36:34;;;;;;;;;;;26.60;99.80;;;;;;5068801;28;19913;-70
2022/07/22 11:39:00;;;;;;;;;;;26.80;99.90;;;;;;5067992;28;19962;-71
2022/07/22 11:41:27;;;;;;;;;;;26.50;99.90;;;;;;5069551;28;19916;-71
2022/07/22 11:43:53;;;;;;;;;;;26.50;99.90;;;;;;5065380;28;19992;-71
2022/07/22 11:46:18;;;;;;;;;;;26.70;99.80;;;;;;5068285;28;20008;-71
2022/07/22 11:48:44;;;;;;;;;;;26.90;99.20;;;;;;5060619;28;19916;-71
2022/07/22 11:51:11;;;;;;;;;;;26.90;98.90;;;;;;5069148;28;20438;-70
2022/07/22 11:53:37;;;;;;;;;;;27.20;98.70;;;;;;5065962;28;19916;-72
2022/07/22 11:56:04;;;;;;;;;;;26.70;98.90;;;;;;5067562;28;19918;-71
2022/07/22 11:58:56;;;;;;;;;;;26.40;99.40;;;;;;5066467;28;19925;-70
2022/07/22 12:01:23;;;;;;;;;;;26.50;99.30;;;;;;5057754;28;19955;-71
2022/07/22 12:03:50;;;;;;;;;;;26.60;99.10;;;;;;5064461;28;20301;-67
2022/07/22 12:06:16;;;;;;;;;;;25.50;99.90;;;;;;5066790;28;19920;-68
2022/07/22 12:08:43;;;;;;;;;;;26.00;99.80;;;;;;5064902;28;19922;-66
2022/07/22 12:11:10;;;;;;;;;;;25.70;99.90;;;;;;5066913;28;20015;-66
2022/07/22 12:13:35;;;;;;;;;;;26.20;99.30;;;;;;5064918;28;19920;-68
2022/07/22 12:16:16;;;;;;;;;;;26.30;99.10;;;;;;5066408;28;19920;-68
2022/07/22 12:18:41;;;;;;;;;;;26.40;99.00;;;;;;5062645;28;20385;-65
2022/07/22 12:21:07;;;;;;;;;;;26.50;99.10;;;;;;5067038;28;19924;-66
2022/07/22 12:23:32;;;;;;;;;;;26.00;99.20;;;;;;5065006;28;19957;-68
2022/07/22 12:25:59;;;;;;;;;;;25.30;99.90;;;;;;5066378;28;19991;-68
2022/07/22 12:28:25;;;;;;;;;;;25.20;99.90;;;;;;5064530;28;19919;-66
2022/07/22 12:30:52;;;;;;;;;;;25.20;99.90;;;;;;5066274;28;20278;-66
2022/07/22 12:33:18;;;;;;;;;;;25.10;99.90;;;;;;5063452;28;20038;-65
2022/07/22 12:35:44;;;;;;;;;;;25.60;99.90;;;;;;5066706;28;19917;-65
2022/07/22 12:38:10;;;;;;;;;;;26.50;99.60;;;;;;5063183;28;20354;-66
2022/07/22 12:40:36;;;;;;;;;;;26.50;99.20;;;;;;5066099;28;19913;-67
2022/07/22 12:43:03;;;;;;;;;;;26.40;98.80;;;;;;5064417;28;19912;-66
2022/07/22 12:45:29;;;;;;;;;;;26.00;99.30;;;;;;5066438;28;19917;-68
2022/07/22 12:47:58;;;;;;;;;;;25.90;99.80;;;;;;5064864;28;20419;-68
2022/07/22 12:50:25;;;;;;;;;;;26.40;99.20;;;;;;5067023;28;19916;-69
2022/07/22 12:52:55;;;;;;;;;;;26.80;97.60;;;;;;5057202;28;19920;-69
2022/07/22 12:55:21;;;;;;;;;;;27.30;97.20;;;;;;5065509;28;19916;-68
2022/07/22 12:57:46;;;;;;;;;;;27.30;96.90;;;;;;5063933;28;19921;-68
2022/07/22 13:00:16;;;;;;;;;;;27.40;97.10;;;;;;5065869;28;19913;-67
2022/07/22 13:02:41;;;;;;;;;;;28.20;95.20;;;;;;5064055;28;20440;-67
2022/07/22 13:05:07;;;;;;;;;;;26.60;96.20;;;;;;5062010;28;19916;-73
2022/07/22 13:07:32;;;;;;;;;;;27.20;96.10;;;;;;5061486;28;19917;-77
2022/07/22 13:09:58;;;;;;;;;;;27.40;95.60;;;;;;5067056;28;20072;-83
2022/07/22 13:12:23;;;;;;;;;;;27.50;94.90;;;;;;5065046;28;20009;-80
2022/07/22 13:14:48;;;;;;;;;;;26.70;96.40;;;;;;5066806;28;20141;-81
2022/07/22 13:17:15;;;;;;;;;;;26.80;96.80;;;;;;5063263;28;19920;-75
2022/07/22 13:19:40;;;;;;;;;;;26.80;95.50;;;;;;5066627;28;20296;-78
2022/07/22 13:22:05;;;;;;;;;;;26.50;95.90;;;;;;5064946;28;20433;-74
2022/07/22 13:24:31;;;;;;;;;;;26.70;96.00;;;;;;5063465;28;20261;-78
2022/07/22 13:26:56;;;;;;;;;;;26.50;96.30;;;;;;5066299;28;19948;-72
2022/07/22 13:29:22;;;;;;;;;;;26.40;95.90;;;;;;5063731;28;20689;-73
2022/07/22 13:31:49;;;;;;;;;;;26.20;95.70;;;;;;5065752;28;19912;-74
2022/07/22 13:34:14;;;;;;;;;;;26.40;95.50;;;;;;5064408;28;19990;-73
2022/07/22 13:36:40;;;;;;;;;;;25.50;97.00;;;;;;5064663;28;20020;-72
2022/07/22 13:39:05;;;;;;;;;;;27.30;95.00;;;;;;5063946;28;20387;-72
2022/07/22 13:41:31;;;;;;;;;;;29.20;92.20;;;;;;5065373;28;20002;-71
2022/07/22 13:43:56;;;;;;;;;;;29.00;91.30;;;;;;5063789;28;20291;-72
2022/07/22 13:46:22;;;;;;;;;;;28.00;91.80;;;;;;5066112;28;19934;-75
2022/07/22 13:48:47;;;;;;;;;;;27.00;93.10;;;;;;5063765;28;19912;-74
2022/07/22 13:51:14;;;;;;;;;;;26.40;94.30;;;;;;5065979;28;19955;-75
2022/07/22 13:53:39;;;;;;;;;;;26.10;94.80;;;;;;5064203;28;19916;-75
2022/07/22 13:56:07;;;;;;;;;;;26.00;95.40;;;;;;5065360;28;19989;-72
2022/07/22 13:58:34;;;;;;;;;;;27.10;94.30;;;;;;5063124;28;21476;-73
2022/07/22 14:01:00;;;;;;;;;;;27.70;93.10;;;;;;5065380;28;20439;-73
2022/07/22 14:03:26;;;;;;;;;;;27.10;93.50;;;;;;5063619;28;19919;-73
2022/07/22 14:05:51;;;;;;;;;;;28.00;92.90;;;;;;5065456;28;20112;-73
2022/07/22 14:08:17;;;;;;;;;;;30.50;88.70;;;;;;5063421;28;20349;-74
2022/07/22 14:10:42;;;;;;;;;;;30.40;87.10;;;;;;5065567;28;19916;-74